• Join FlightAware (Why Join?)
  • Login
  • US Flag 
01:12PM EDT


 

Airport Tracker/Info


-or-


 

Live Flight TrackerFlight Track Log ✈ ASQ4233 ✈ 30-Apr-2013 ✈ KEWR - KBTV

Flight Track Log - Related Links

Times and Time Zones

All times are in EDT time to prevent confusion due to time zone crossing. See the ASQ4233 flight status page for this flight to view local times or setup timezone preferences in your user account.

Time Position Orientation Groundspeed Altitude Reporting Facility
EDT Latitude Longitude Course Direction KTS MPH feet Rate Location/Type
08:14AM 40.7167 -74.1500 40° Northeast 161 185 1,400  Level New York TRACON
08:15AM 40.7500 -74.1000 49° Northeast 231 266 2,900 2,040 Climbing New York TRACON
08:17AM 40.8556 -74.0181 30° Northeast 261 300 7,400 2,340 Climbing Boston Center
08:18AM 41.0312 -73.7817 40° Northeast  Level FlightAware Approximate
08:18AM 40.9003 -73.9367 54° Northeast 255 293 9,800  Level Boston Center
08:19AM 41.1026 -73.7013 40° Northeast  Level FlightAware Approximate
08:19AM 40.9414 -73.8358 62° Northeast 273 314 10,000  Level Boston Center
08:20AM 40.9678 -73.7100 74° East 316 364 12,100 1,800 Climbing Boston Center
08:21AM 40.9942 -73.5922 73° East 329 379 13,700 1,560 Climbing Boston Center
08:22AM 41.0244 -73.4689 72° East 342 394 15,300 1,620 Climbing Boston Center
08:23AM 41.1228 -73.4100 24° Northeast 334 384 17,000 1,320 Climbing Boston Center
08:24AM 41.2128 -73.3839 12° North 344 396 18,000 1,380 Climbing Boston Center
08:25AM 41.3131 -73.3575 11° North 364 419 19,900 2,040 Climbing Boston Center
08:26AM 41.4111 -73.3314 11° North 364 419 22,200 2,040 Climbing Boston Center
08:27AM 41.5050 -73.3133 North 350 403 24,000 1,380 Climbing Boston Center
08:28AM 41.5989 -73.3200 357° North 341 392 25,000 480 Climbing Boston Center
08:29AM 41.7031 -73.3214 359° North 351 404 25,000  Level Boston Center
08:30AM 41.8156 -73.3231 359° North 383 441 25,000  Level Boston Center
08:31AM 41.9322 -73.3275 358° North 402 463 25,000  Level Boston Center
08:32AM 42.0258 -73.3289 359° North 415 478 25,000  Level Boston Center
08:33AM 42.1678 -73.3308 359° North 421 484 25,000  Level Boston Center
08:34AM 42.2906 -73.3325 359° North 421 484 25,000  Level Boston Center
08:35AM 42.4117 -73.3258 North 421 484 25,000  Level Boston Center
08:36AM 42.5325 -73.3247 360° North 421 484 25,000  Level Boston Center
08:37AM 42.6656 -73.3436 354° North 427 491 25,000  Level Boston Center
08:38AM 42.7844 -73.3425 360° North 427 491 25,000  Level Boston Center
08:39AM 42.9075 -73.3472 358° North 427 491 25,000 -60 Level Boston Center
08:40AM 43.0283 -73.3433 North 427 491 24,900 -540 Descending Boston Center
08:41AM 43.1450 -73.3281 North 427 491 24,000 -480 Descending Boston Center
08:42AM 43.2639 -73.3153 North 422 486 24,000 -60 Level Boston Center
08:43AM 43.3850 -73.3028 North 422 486 23,900 -900 Descending Boston Center
08:44AM 43.4850 -73.2900 North 416 479 22,200 -1,920 Descending Boston Center
08:45AM 43.6019 -73.2744 North 416 479 20,100 -2,100 Descending Boston Center
08:46AM 43.7144 -73.2644 North 416 479 18,100 -2,100 Descending Boston Center
08:47AM 43.8375 -73.2489 North 405 466 15,900 -2,340 Descending Boston Center
08:48AM 43.9439 -73.2358 North 397 457 13,500 -2,400 Descending Boston Center
08:49AM 44.0483 -73.2258 North 377 434 11,100 -1,980 Descending Boston Center
08:50AM 44.1333 -73.2528 347° North 328 377 9,600 -1,800 Descending Boston Center
08:51AM 44.2042 -73.2800 345° North 284 327 7,600 -2,040 Descending Boston Center
08:52AM 44.2747 -73.3042 346° North 259 298 5,600 -2,040 Descending Boston Center
08:53AM 44.3456 -73.3256 348° North 254 292 3,600 -1,560 Descending Boston Center
08:54AM 44.4078 -73.3322 356° North 243 280 2,200 -1,200 Descending Boston Center